sensor_id;sensor_type;location;lat;lon;timestamp;P1;durP1;ratioP1;P2;durP2;ratioP2
59974;SDS011;62136;-35.664;-63.766;2022-08-01T00:01:58;3.10;;;2.80;;
59974;SDS011;62136;-35.664;-63.766;2022-08-01T00:04:25;3.25;;;2.80;;
59974;SDS011;62136;-35.664;-63.766;2022-08-01T00:06:52;3.03;;;2.72;;
59974;SDS011;62136;-35.664;-63.766;2022-08-01T00:09:19;2.88;;;2.60;;
59974;SDS011;62136;-35.664;-63.766;2022-08-01T00:11:46;3.10;;;2.67;;
59974;SDS011;62136;-35.664;-63.766;2022-08-01T00:14:13;2.80;;;2.50;;
59974;SDS011;62136;-35.664;-63.766;2022-08-01T00:16:40;3.30;;;2.53;;
59974;SDS011;62136;-35.664;-63.766;2022-08-01T00:19:07;3.08;;;2.70;;
59974;SDS011;62136;-35.664;-63.766;2022-08-01T00:21:34;3.20;;;2.83;;
59974;SDS011;62136;-35.664;-63.766;2022-08-01T00:24:01;3.25;;;2.50;;
59974;SDS011;62136;-35.664;-63.766;2022-08-01T00:26:28;2.75;;;2.30;;
59974;SDS011;62136;-35.664;-63.766;2022-08-01T00:28:55;3.83;;;2.55;;
59974;SDS011;62136;-35.664;-63.766;2022-08-01T00:31:22;3.45;;;2.35;;
59974;SDS011;62136;-35.664;-63.766;2022-08-01T00:33:49;3.03;;;2.50;;
59974;SDS011;62136;-35.664;-63.766;2022-08-01T00:36:16;2.67;;;2.47;;
59974;SDS011;62136;-35.664;-63.766;2022-08-01T00:38:43;4.15;;;2.92;;
59974;SDS011;62136;-35.664;-63.766;2022-08-01T00:41:10;3.10;;;2.80;;
59974;SDS011;62136;-35.664;-63.766;2022-08-01T00:43:37;3.05;;;2.75;;
59974;SDS011;62136;-35.664;-63.766;2022-08-01T00:46:04;2.58;;;2.38;;
59974;SDS011;62136;-35.664;-63.766;2022-08-01T00:48:31;3.55;;;2.72;;
59974;SDS011;62136;-35.664;-63.766;2022-08-01T00:50:58;2.75;;;2.35;;
59974;SDS011;62136;-35.664;-63.766;2022-08-01T00:53:25;3.00;;;2.70;;
59974;SDS011;62136;-35.664;-63.766;2022-08-01T00:55:52;3.92;;;2.80;;
59974;SDS011;62136;-35.664;-63.766;2022-08-01T00:58:19;3.90;;;2.60;;
59974;SDS011;62136;-35.664;-63.766;2022-08-01T01:00:47;3.38;;;2.60;;
59974;SDS011;62136;-35.664;-63.766;2022-08-01T01:03:14;2.90;;;2.50;;
59974;SDS011;62136;-35.664;-63.766;2022-08-01T01:05:54;3.15;;;2.55;;
59974;SDS011;62136;-35.664;-63.766;2022-08-01T01:08:35;2.75;;;2.00;;
59974;SDS011;62136;-35.664;-63.766;2022-08-01T01:11:10;2.75;;;2.55;;
59974;SDS011;62136;-35.664;-63.766;2022-08-01T01:13:49;2.65;;;2.45;;
59974;SDS011;62136;-35.664;-63.766;2022-08-01T01:16:25;2.92;;;2.63;;
59974;SDS011;62136;-35.664;-63.766;2022-08-01T01:18:57;2.97;;;2.58;;
59974;SDS011;62136;-35.664;-63.766;2022-08-01T01:21:39;2.83;;;2.40;;
59974;SDS011;62136;-35.664;-63.766;2022-08-01T01:30:14;3.17;;;2.75;;
59974;SDS011;62136;-35.664;-63.766;2022-08-01T01:32:42;3.10;;;2.50;;
59974;SDS011;62136;-35.664;-63.766;2022-08-01T01:35:17;3.63;;;2.80;;
59974;SDS011;62136;-35.664;-63.766;2022-08-01T01:37:49;2.83;;;2.45;;
59974;SDS011;62136;-35.664;-63.766;2022-08-01T01:40:21;3.17;;;2.53;;
59974;SDS011;62136;-35.664;-63.766;2022-08-01T01:42:50;2.70;;;2.50;;
59974;SDS011;62136;-35.664;-63.766;2022-08-01T01:45:18;4.15;;;2.55;;
59974;SDS011;62136;-35.664;-63.766;2022-08-01T01:47:47;2.70;;;2.40;;
59974;SDS011;62136;-35.664;-63.766;2022-08-01T01:50:15;2.90;;;2.53;;
59974;SDS011;62136;-35.664;-63.766;2022-08-01T01:52:43;2.85;;;2.35;;
59974;SDS011;62136;-35.664;-63.766;2022-08-01T01:55:12;3.20;;;2.80;;
59974;SDS011;62136;-35.664;-63.766;2022-08-01T01:57:41;3.00;;;2.60;;
59974;SDS011;62136;-35.664;-63.766;2022-08-01T02:00:10;2.72;;;2.53;;
59974;SDS011;62136;-35.664;-63.766;2022-08-01T02:02:38;2.65;;;2.22;;
59974;SDS011;62136;-35.664;-63.766;2022-08-01T02:05:08;3.83;;;2.50;;
59974;SDS011;62136;-35.664;-63.766;2022-08-01T02:07:37;3.95;;;3.00;;
59974;SDS011;62136;-35.664;-63.766;2022-08-01T02:10:06;2.60;;;2.40;;
59974;SDS011;62136;-35.664;-63.766;2022-08-01T02:12:36;3.38;;;2.78;;
59974;SDS011;62136;-35.664;-63.766;2022-08-01T02:15:07;2.63;;;2.42;;
59974;SDS011;62136;-35.664;-63.766;2022-08-01T02:17:37;2.85;;;2.40;;
59974;SDS011;62136;-35.664;-63.766;2022-08-01T02:20:08;3.00;;;2.40;;
59974;SDS011;62136;-35.664;-63.766;2022-08-01T02:22:47;2.72;;;2.40;;
59974;SDS011;62136;-35.664;-63.766;2022-08-01T02:28:21;3.35;;;3.05;;
59974;SDS011;62136;-35.664;-63.766;2022-08-01T02:30:54;3.75;;;2.70;;
59974;SDS011;62136;-35.664;-63.766;2022-08-01T02:33:44;2.83;;;2.63;;
59974;SDS011;62136;-35.664;-63.766;2022-08-01T02:36:17;2.80;;;2.33;;
59974;SDS011;62136;-35.664;-63.766;2022-08-01T02:38:47;2.67;;;2.47;;
59974;SDS011;62136;-35.664;-63.766;2022-08-01T02:41:16;2.65;;;2.30;;
59974;SDS011;62136;-35.664;-63.766;2022-08-01T02:43:48;3.10;;;2.42;;
59974;SDS011;62136;-35.664;-63.766;2022-08-01T02:46:20;2.38;;;2.17;;
59974;SDS011;62136;-35.664;-63.766;2022-08-01T02:48:58;3.22;;;2.50;;
59974;SDS011;62136;-35.664;-63.766;2022-08-01T02:51:27;3.00;;;2.70;;
59974;SDS011;62136;-35.664;-63.766;2022-08-01T02:53:56;2.88;;;2.40;;
59974;SDS011;62136;-35.664;-63.766;2022-08-01T02:56:25;2.75;;;2.47;;
59974;SDS011;62136;-35.664;-63.766;2022-08-01T02:59:03;3.38;;;2.50;;
59974;SDS011;62136;-35.664;-63.766;2022-08-01T03:01:33;2.75;;;2.33;;
59974;SDS011;62136;-35.664;-63.766;2022-08-01T03:04:02;3.28;;;2.55;;
59974;SDS011;62136;-35.664;-63.766;2022-08-01T03:06:31;2.58;;;2.38;;
59974;SDS011;62136;-35.664;-63.766;2022-08-01T03:09:02;2.35;;;2.10;;
59974;SDS011;62136;-35.664;-63.766;2022-08-01T03:11:30;4.13;;;2.55;;
59974;SDS011;62136;-35.664;-63.766;2022-08-01T03:13:59;3.13;;;2.17;;
59974;SDS011;62136;-35.664;-63.766;2022-08-01T03:16:30;2.95;;;2.65;;
59974;SDS011;62136;-35.664;-63.766;2022-08-01T03:18:59;3.42;;;2.50;;
59974;SDS011;62136;-35.664;-63.766;2022-08-01T03:21:28;2.60;;;2.40;;
59974;SDS011;62136;-35.664;-63.766;2022-08-01T03:23:58;3.17;;;2.45;;
59974;SDS011;62136;-35.664;-63.766;2022-08-01T03:26:27;2.95;;;2.65;;
59974;SDS011;62136;-35.664;-63.766;2022-08-01T03:28:57;2.85;;;2.60;;
59974;SDS011;62136;-35.664;-63.766;2022-08-01T03:31:27;2.60;;;2.17;;
59974;SDS011;62136;-35.664;-63.766;2022-08-01T03:33:55;3.08;;;2.28;;
59974;SDS011;62136;-35.664;-63.766;2022-08-01T03:36:23;2.72;;;2.53;;
59974;SDS011;62136;-35.664;-63.766;2022-08-01T03:38:52;2.97;;;2.53;;
59974;SDS011;62136;-35.664;-63.766;2022-08-01T03:41:25;2.40;;;2.20;;
59974;SDS011;62136;-35.664;-63.766;2022-08-01T03:43:56;3.10;;;2.80;;
59974;SDS011;62136;-35.664;-63.766;2022-08-01T03:47:29;2.45;;;2.22;;
59974;SDS011;62136;-35.664;-63.766;2022-08-01T03:49:41;4.03;;;2.22;;
59974;SDS011;62136;-35.664;-63.766;2022-08-01T03:52:10;2.40;;;2.20;;
59974;SDS011;62136;-35.664;-63.766;2022-08-01T03:54:43;2.38;;;2.17;;
59974;SDS011;62136;-35.664;-63.766;2022-08-01T03:57:13;2.30;;;2.10;;
59974;SDS011;62136;-35.664;-63.766;2022-08-01T03:59:41;2.70;;;2.35;;
59974;SDS011;62136;-35.664;-63.766;2022-08-01T04:02:09;2.30;;;2.10;;
59974;SDS011;62136;-35.664;-63.766;2022-08-01T04:04:39;3.03;;;2.50;;
59974;SDS011;62136;-35.664;-63.766;2022-08-01T04:07:24;2.50;;;2.20;;
59974;SDS011;62136;-35.664;-63.766;2022-08-01T04:12:20;2.55;;;2.35;;
59974;SDS011;62136;-35.664;-63.766;2022-08-01T04:14:48;2.35;;;2.10;;
59974;SDS011;62136;-35.664;-63.766;2022-08-01T04:17:18;2.85;;;2.08;;
59974;SDS011;62136;-35.664;-63.766;2022-08-01T04:19:45;2.92;;;2.10;;
59974;SDS011;62136;-35.664;-63.766;2022-08-01T04:22:13;2.83;;;2.33;;
59974;SDS011;62136;-35.664;-63.766;2022-08-01T04:24:41;2.47;;;2.28;;
59974;SDS011;62136;-35.664;-63.766;2022-08-01T04:27:15;2.47;;;2.28;;
59974;SDS011;62136;-35.664;-63.766;2022-08-01T04:29:45;3.20;;;2.30;;
59974;SDS011;62136;-35.664;-63.766;2022-08-01T04:32:15;2.20;;;2.00;;
59974;SDS011;62136;-35.664;-63.766;2022-08-01T04:34:44;2.40;;;2.20;;
59974;SDS011;62136;-35.664;-63.766;2022-08-01T04:37:13;2.70;;;2.25;;
59974;SDS011;62136;-35.664;-63.766;2022-08-01T04:39:42;2.88;;;2.58;;
59974;SDS011;62136;-35.664;-63.766;2022-08-01T04:42:11;2.80;;;2.20;;
59974;SDS011;62136;-35.664;-63.766;2022-08-01T04:44:41;2.83;;;2.30;;
59974;SDS011;62136;-35.664;-63.766;2022-08-01T04:47:08;2.50;;;2.17;;
59974;SDS011;62136;-35.664;-63.766;2022-08-01T04:49:37;2.38;;;2.17;;
59974;SDS011;62136;-35.664;-63.766;2022-08-01T04:52:05;3.47;;;2.20;;
59974;SDS011;62136;-35.664;-63.766;2022-08-01T04:54:35;2.40;;;2.05;;
59974;SDS011;62136;-35.664;-63.766;2022-08-01T04:57:03;3.15;;;2.38;;
59974;SDS011;62136;-35.664;-63.766;2022-08-01T04:59:31;2.38;;;2.10;;
59974;SDS011;62136;-35.664;-63.766;2022-08-01T05:02:16;2.50;;;2.17;;
59974;SDS011;62136;-35.664;-63.766;2022-08-01T05:04:45;2.33;;;2.13;;
59974;SDS011;62136;-35.664;-63.766;2022-08-01T05:07:12;2.60;;;2.40;;
59974;SDS011;62136;-35.664;-63.766;2022-08-01T05:09:41;2.45;;;2.10;;
59974;SDS011;62136;-35.664;-63.766;2022-08-01T05:12:11;2.25;;;2.05;;
59974;SDS011;62136;-35.664;-63.766;2022-08-01T05:14:39;2.42;;;2.00;;
59974;SDS011;62136;-35.664;-63.766;2022-08-01T05:17:07;2.67;;;2.45;;
59974;SDS011;62136;-35.664;-63.766;2022-08-01T05:19:35;2.33;;;2.10;;
59974;SDS011;62136;-35.664;-63.766;2022-08-01T05:22:04;2.60;;;2.10;;
59974;SDS011;62136;-35.664;-63.766;2022-08-01T05:24:33;2.10;;;1.90;;
59974;SDS011;62136;-35.664;-63.766;2022-08-01T05:27:02;2.10;;;1.92;;
59974;SDS011;62136;-35.664;-63.766;2022-08-01T05:29:30;2.58;;;2.20;;
59974;SDS011;62136;-35.664;-63.766;2022-08-01T05:31:57;3.28;;;2.13;;
59974;SDS011;62136;-35.664;-63.766;2022-08-01T05:34:25;2.30;;;1.92;;
59974;SDS011;62136;-35.664;-63.766;2022-08-01T05:36:52;2.35;;;1.98;;
59974;SDS011;62136;-35.664;-63.766;2022-08-01T05:39:20;2.58;;;2.00;;
59974;SDS011;62136;-35.664;-63.766;2022-08-01T05:41:47;1.92;;;1.83;;
59974;SDS011;62136;-35.664;-63.766;2022-08-01T05:44:14;2.10;;;1.90;;
59974;SDS011;62136;-35.664;-63.766;2022-08-01T05:46:41;2.55;;;1.88;;
59974;SDS011;62136;-35.664;-63.766;2022-08-01T05:49:08;1.92;;;1.80;;
59974;SDS011;62136;-35.664;-63.766;2022-08-01T05:51:35;2.00;;;1.90;;
59974;SDS011;62136;-35.664;-63.766;2022-08-01T05:54:02;2.38;;;2.17;;
59974;SDS011;62136;-35.664;-63.766;2022-08-01T05:56:29;2.55;;;2.08;;
59974;SDS011;62136;-35.664;-63.766;2022-08-01T05:58:56;2.55;;;2.20;;
59974;SDS011;62136;-35.664;-63.766;2022-08-01T06:01:23;2.03;;;1.80;;
59974;SDS011;62136;-35.664;-63.766;2022-08-01T06:03:51;2.13;;;1.90;;
59974;SDS011;62136;-35.664;-63.766;2022-08-01T06:06:20;2.63;;;1.77;;
59974;SDS011;62136;-35.664;-63.766;2022-08-01T06:08:47;2.00;;;1.88;;
59974;SDS011;62136;-35.664;-63.766;2022-08-01T06:11:14;2.78;;;2.08;;
59974;SDS011;62136;-35.664;-63.766;2022-08-01T06:13:41;2.28;;;2.08;;
59974;SDS011;62136;-35.664;-63.766;2022-08-01T06:16:08;1.98;;;1.83;;
59974;SDS011;62136;-35.664;-63.766;2022-08-01T06:18:35;2.80;;;2.17;;
59974;SDS011;62136;-35.664;-63.766;2022-08-01T06:21:02;2.85;;;1.70;;
59974;SDS011;62136;-35.664;-63.766;2022-08-01T06:23:29;2.28;;;1.90;;
59974;SDS011;62136;-35.664;-63.766;2022-08-01T06:25:56;1.98;;;1.52;;
59974;SDS011;62136;-35.664;-63.766;2022-08-01T06:28:23;2.30;;;1.70;;
59974;SDS011;62136;-35.664;-63.766;2022-08-01T06:30:51;1.80;;;1.70;;
59974;SDS011;62136;-35.664;-63.766;2022-08-01T06:33:18;2.17;;;1.98;;
59974;SDS011;62136;-35.664;-63.766;2022-08-01T06:35:46;2.00;;;1.70;;
59974;SDS011;62136;-35.664;-63.766;2022-08-01T06:38:13;2.33;;;1.92;;
59974;SDS011;62136;-35.664;-63.766;2022-08-01T06:40:40;2.10;;;1.90;;
59974;SDS011;62136;-35.664;-63.766;2022-08-01T06:43:07;1.70;;;1.60;;
59974;SDS011;62136;-35.664;-63.766;2022-08-01T06:45:36;1.80;;;1.70;;
59974;SDS011;62136;-35.664;-63.766;2022-08-01T06:48:04;1.70;;;1.60;;
59974;SDS011;62136;-35.664;-63.766;2022-08-01T06:50:32;2.00;;;1.55;;
59974;SDS011;62136;-35.664;-63.766;2022-08-01T06:53:01;2.72;;;1.98;;
59974;SDS011;62136;-35.664;-63.766;2022-08-01T06:55:28;1.98;;;1.75;;
59974;SDS011;62136;-35.664;-63.766;2022-08-01T06:57:55;1.73;;;1.63;;
59974;SDS011;62136;-35.664;-63.766;2022-08-01T07:00:23;1.67;;;1.50;;
59974;SDS011;62136;-35.664;-63.766;2022-08-01T07:02:51;2.55;;;1.60;;
59974;SDS011;62136;-35.664;-63.766;2022-08-01T07:05:19;1.88;;;1.73;;
59974;SDS011;62136;-35.664;-63.766;2022-08-01T07:07:47;1.63;;;1.50;;
59974;SDS011;62136;-35.664;-63.766;2022-08-01T07:10:14;2.00;;;1.67;;
59974;SDS011;62136;-35.664;-63.766;2022-08-01T07:12:45;2.30;;;2.00;;
59974;SDS011;62136;-35.664;-63.766;2022-08-01T07:15:12;1.80;;;1.50;;
59974;SDS011;62136;-35.664;-63.766;2022-08-01T07:17:41;1.83;;;1.50;;
59974;SDS011;62136;-35.664;-63.766;2022-08-01T07:20:10;1.90;;;1.70;;
59974;SDS011;62136;-35.664;-63.766;2022-08-01T07:22:38;1.67;;;1.50;;
59974;SDS011;62136;-35.664;-63.766;2022-08-01T07:25:05;1.52;;;1.40;;
59974;SDS011;62136;-35.664;-63.766;2022-08-01T07:27:33;1.58;;;1.48;;
59974;SDS011;62136;-35.664;-63.766;2022-08-01T07:30:01;1.95;;;1.85;;
59974;SDS011;62136;-35.664;-63.766;2022-08-01T07:32:30;1.75;;;1.50;;
59974;SDS011;62136;-35.664;-63.766;2022-08-01T07:34:57;1.60;;;1.50;;
59974;SDS011;62136;-35.664;-63.766;2022-08-01T07:37:24;1.60;;;1.50;;
59974;SDS011;62136;-35.664;-63.766;2022-08-01T07:39:51;2.10;;;1.75;;
59974;SDS011;62136;-35.664;-63.766;2022-08-01T07:42:18;2.05;;;1.77;;
59974;SDS011;62136;-35.664;-63.766;2022-08-01T07:44:45;1.40;;;1.30;;
59974;SDS011;62136;-35.664;-63.766;2022-08-01T07:47:13;1.52;;;1.42;;
59974;SDS011;62136;-35.664;-63.766;2022-08-01T07:49:41;1.50;;;1.40;;
59974;SDS011;62136;-35.664;-63.766;2022-08-01T07:52:08;1.50;;;1.40;;
59974;SDS011;62136;-35.664;-63.766;2022-08-01T07:54:35;1.40;;;1.30;;
59974;SDS011;62136;-35.664;-63.766;2022-08-01T07:57:02;1.73;;;1.50;;
59974;SDS011;62136;-35.664;-63.766;2022-08-01T07:59:30;1.73;;;1.60;;
59974;SDS011;62136;-35.664;-63.766;2022-08-01T08:01:57;1.88;;;1.30;;
59974;SDS011;62136;-35.664;-63.766;2022-08-01T08:04:25;1.38;;;1.27;;
59974;SDS011;62136;-35.664;-63.766;2022-08-01T08:06:53;1.50;;;1.30;;
59974;SDS011;62136;-35.664;-63.766;2022-08-01T08:09:20;1.73;;;1.40;;
59974;SDS011;62136;-35.664;-63.766;2022-08-01T08:11:47;1.30;;;1.20;;
59974;SDS011;62136;-35.664;-63.766;2022-08-01T08:14:15;1.30;;;1.20;;
59974;SDS011;62136;-35.664;-63.766;2022-08-01T08:16:42;1.52;;;1.42;;
59974;SDS011;62136;-35.664;-63.766;2022-08-01T08:19:10;1.33;;;1.23;;
59974;SDS011;62136;-35.664;-63.766;2022-08-01T08:21:37;1.30;;;1.20;;
59974;SDS011;62136;-35.664;-63.766;2022-08-01T08:24:05;1.30;;;1.20;;
59974;SDS011;62136;-35.664;-63.766;2022-08-01T08:26:46;1.30;;;1.20;;
59974;SDS011;62136;-35.664;-63.766;2022-08-01T08:29:20;1.40;;;1.30;;
59974;SDS011;62136;-35.664;-63.766;2022-08-01T08:31:49;1.35;;;1.25;;
59974;SDS011;62136;-35.664;-63.766;2022-08-01T08:34:17;1.42;;;1.30;;
59974;SDS011;62136;-35.664;-63.766;2022-08-01T08:36:45;1.52;;;1.15;;
59974;SDS011;62136;-35.664;-63.766;2022-08-01T08:39:13;6.97;;;1.35;;
59974;SDS011;62136;-35.664;-63.766;2022-08-01T08:41:40;1.48;;;1.15;;
59974;SDS011;62136;-35.664;-63.766;2022-08-01T08:44:07;1.75;;;1.23;;
59974;SDS011;62136;-35.664;-63.766;2022-08-01T08:46:45;1.55;;;1.45;;
59974;SDS011;62136;-35.664;-63.766;2022-08-01T08:49:21;1.83;;;1.52;;
59974;SDS011;62136;-35.664;-63.766;2022-08-01T08:51:50;1.23;;;1.17;;
59974;SDS011;62136;-35.664;-63.766;2022-08-01T08:54:20;1.17;;;1.08;;
59974;SDS011;62136;-35.664;-63.766;2022-08-01T08:56:50;1.15;;;1.05;;
59974;SDS011;62136;-35.664;-63.766;2022-08-01T08:59:18;1.30;;;1.20;;
59974;SDS011;62136;-35.664;-63.766;2022-08-01T09:01:46;1.33;;;1.15;;
59974;SDS011;62136;-35.664;-63.766;2022-08-01T09:04:13;1.40;;;1.30;;
59974;SDS011;62136;-35.664;-63.766;2022-08-01T09:06:41;1.73;;;1.30;;
59974;SDS011;62136;-35.664;-63.766;2022-08-01T09:09:08;1.13;;;1.02;;
59974;SDS011;62136;-35.664;-63.766;2022-08-01T09:11:36;1.60;;;1.50;;
59974;SDS011;62136;-35.664;-63.766;2022-08-01T09:17:05;1.42;;;1.25;;
59974;SDS011;62136;-35.664;-63.766;2022-08-01T09:22:08;1.30;;;1.20;;
59974;SDS011;62136;-35.664;-63.766;2022-08-01T09:24:37;1.40;;;1.30;;
59974;SDS011;62136;-35.664;-63.766;2022-08-01T09:27:16;1.60;;;1.17;;
59974;SDS011;62136;-35.664;-63.766;2022-08-01T09:29:50;1.30;;;1.20;;
59974;SDS011;62136;-35.664;-63.766;2022-08-01T09:32:19;1.60;;;1.25;;
59974;SDS011;62136;-35.664;-63.766;2022-08-01T09:34:46;1.00;;;1.00;;
59974;SDS011;62136;-35.664;-63.766;2022-08-01T09:37:13;1.45;;;1.23;;
59974;SDS011;62136;-35.664;-63.766;2022-08-01T09:39:43;1.33;;;1.23;;
59974;SDS011;62136;-35.664;-63.766;2022-08-01T09:44:51;1.63;;;1.23;;
59974;SDS011;62136;-35.664;-63.766;2022-08-01T09:47:19;1.85;;;0.93;;
59974;SDS011;62136;-35.664;-63.766;2022-08-01T09:49:54;1.00;;;1.00;;
59974;SDS011;62136;-35.664;-63.766;2022-08-01T09:52:23;1.13;;;1.08;;
59974;SDS011;62136;-35.664;-63.766;2022-08-01T09:54:53;1.17;;;1.08;;
59974;SDS011;62136;-35.664;-63.766;2022-08-01T09:57:31;1.33;;;1.20;;
59974;SDS011;62136;-35.664;-63.766;2022-08-01T09:59:59;1.25;;;1.00;;
59974;SDS011;62136;-35.664;-63.766;2022-08-01T10:05:03;1.30;;;1.20;;
59974;SDS011;62136;-35.664;-63.766;2022-08-01T10:07:32;1.85;;;1.50;;
59974;SDS011;62136;-35.664;-63.766;2022-08-01T10:10:17;0.98;;;0.98;;
59974;SDS011;62136;-35.664;-63.766;2022-08-01T10:12:44;1.05;;;1.02;;
59974;SDS011;62136;-35.664;-63.766;2022-08-01T10:15:14;1.15;;;1.05;;
59974;SDS011;62136;-35.664;-63.766;2022-08-01T10:17:45;1.52;;;1.35;;
59974;SDS011;62136;-35.664;-63.766;2022-08-01T10:20:27;1.27;;;1.17;;
59974;SDS011;62136;-35.664;-63.766;2022-08-01T10:22:58;1.58;;;1.20;;
59974;SDS011;62136;-35.664;-63.766;2022-08-01T10:25:27;1.17;;;1.02;;
59974;SDS011;62136;-35.664;-63.766;2022-08-01T10:27:57;1.05;;;0.95;;
59974;SDS011;62136;-35.664;-63.766;2022-08-01T10:30:27;1.80;;;1.10;;
59974;SDS011;62136;-35.664;-63.766;2022-08-01T10:32:55;1.17;;;1.05;;
59974;SDS011;62136;-35.664;-63.766;2022-08-01T10:35:22;1.40;;;1.30;;
59974;SDS011;62136;-35.664;-63.766;2022-08-01T10:37:49;1.10;;;1.00;;
59974;SDS011;62136;-35.664;-63.766;2022-08-01T10:40:23;1.30;;;1.20;;
59974;SDS011;62136;-35.664;-63.766;2022-08-01T10:42:53;1.92;;;1.20;;
59974;SDS011;62136;-35.664;-63.766;2022-08-01T10:45:21;1.40;;;1.20;;
59974;SDS011;62136;-35.664;-63.766;2022-08-01T10:47:53;1.52;;;1.30;;
59974;SDS011;62136;-35.664;-63.766;2022-08-01T10:50:31;1.10;;;1.00;;
59974;SDS011;62136;-35.664;-63.766;2022-08-01T10:53:19;1.20;;;1.10;;
59974;SDS011;62136;-35.664;-63.766;2022-08-01T10:55:49;1.27;;;1.00;;
59974;SDS011;62136;-35.664;-63.766;2022-08-01T10:58:26;1.13;;;1.02;;
59974;SDS011;62136;-35.664;-63.766;2022-08-01T11:01:33;0.90;;;0.90;;
59974;SDS011;62136;-35.664;-63.766;2022-08-01T11:04:13;1.08;;;0.98;;
59974;SDS011;62136;-35.664;-63.766;2022-08-01T11:06:42;1.77;;;1.15;;
59974;SDS011;62136;-35.664;-63.766;2022-08-01T11:12:14;1.67;;;1.10;;
59974;SDS011;62136;-35.664;-63.766;2022-08-01T11:15:24;1.73;;;1.10;;
59974;SDS011;62136;-35.664;-63.766;2022-08-01T11:17:38;2.50;;;1.40;;
59974;SDS011;62136;-35.664;-63.766;2022-08-01T11:30:52;1.15;;;0.93;;
59974;SDS011;62136;-35.664;-63.766;2022-08-01T11:41:25;1.63;;;1.17;;
59974;SDS011;62136;-35.664;-63.766;2022-08-01T11:43:55;1.88;;;1.63;;
59974;SDS011;62136;-35.664;-63.766;2022-08-01T11:49:25;2.20;;;1.95;;
59974;SDS011;62136;-35.664;-63.766;2022-08-01T11:57:29;2.90;;;2.60;;
59974;SDS011;62136;-35.664;-63.766;2022-08-01T12:00:02;5.43;;;3.00;;
59974;SDS011;62136;-35.664;-63.766;2022-08-01T12:02:37;2.72;;;2.47;;
59974;SDS011;62136;-35.664;-63.766;2022-08-01T12:05:06;3.80;;;3.30;;
59974;SDS011;62136;-35.664;-63.766;2022-08-01T12:07:40;5.63;;;3.88;;
59974;SDS011;62136;-35.664;-63.766;2022-08-01T12:10:11;4.35;;;3.47;;
59974;SDS011;62136;-35.664;-63.766;2022-08-01T12:12:43;4.18;;;3.50;;
59974;SDS011;62136;-35.664;-63.766;2022-08-01T12:15:12;3.97;;;2.90;;
59974;SDS011;62136;-35.664;-63.766;2022-08-01T12:17:40;3.58;;;3.20;;
59974;SDS011;62136;-35.664;-63.766;2022-08-01T12:20:11;3.88;;;3.40;;
59974;SDS011;62136;-35.664;-63.766;2022-08-01T12:22:40;4.15;;;3.67;;
59974;SDS011;62136;-35.664;-63.766;2022-08-01T12:25:12;4.55;;;3.65;;
59974;SDS011;62136;-35.664;-63.766;2022-08-01T12:27:43;4.20;;;3.80;;
59974;SDS011;62136;-35.664;-63.766;2022-08-01T12:30:12;4.07;;;3.45;;
59974;SDS011;62136;-35.664;-63.766;2022-08-01T12:32:41;5.25;;;4.05;;
59974;SDS011;62136;-35.664;-63.766;2022-08-01T12:35:11;5.90;;;4.32;;
59974;SDS011;62136;-35.664;-63.766;2022-08-01T12:37:43;5.78;;;3.97;;
59974;SDS011;62136;-35.664;-63.766;2022-08-01T12:40:18;4.88;;;3.92;;
59974;SDS011;62136;-35.664;-63.766;2022-08-01T12:42:47;4.20;;;3.67;;
59974;SDS011;62136;-35.664;-63.766;2022-08-01T12:45:17;4.35;;;3.40;;
59974;SDS011;62136;-35.664;-63.766;2022-08-01T12:47:47;5.72;;;2.83;;
59974;SDS011;62136;-35.664;-63.766;2022-08-01T12:50:16;4.28;;;2.90;;
59974;SDS011;62136;-35.664;-63.766;2022-08-01T12:52:46;3.40;;;2.90;;
59974;SDS011;62136;-35.664;-63.766;2022-08-01T12:55:17;3.25;;;2.45;;
59974;SDS011;62136;-35.664;-63.766;2022-08-01T12:57:46;4.93;;;2.40;;
59974;SDS011;62136;-35.664;-63.766;2022-08-01T13:00:21;3.42;;;2.33;;
59974;SDS011;62136;-35.664;-63.766;2022-08-01T13:02:58;2.97;;;2.20;;
59974;SDS011;62136;-35.664;-63.766;2022-08-01T13:05:50;2.78;;;2.13;;
59974;SDS011;62136;-35.664;-63.766;2022-08-01T13:08:21;2.53;;;2.30;;
59974;SDS011;62136;-35.664;-63.766;2022-08-01T13:10:55;5.22;;;2.72;;
59974;SDS011;62136;-35.664;-63.766;2022-08-01T13:13:37;3.08;;;2.10;;
59974;SDS011;62136;-35.664;-63.766;2022-08-01T13:16:06;3.45;;;1.90;;
59974;SDS011;62136;-35.664;-63.766;2022-08-01T13:18:34;3.72;;;2.20;;
59974;SDS011;62136;-35.664;-63.766;2022-08-01T13:21:15;3.75;;;1.98;;
59974;SDS011;62136;-35.664;-63.766;2022-08-01T13:26:53;3.30;;;2.00;;
59974;SDS011;62136;-35.664;-63.766;2022-08-01T13:29:29;2.60;;;2.00;;
59974;SDS011;62136;-35.664;-63.766;2022-08-01T13:31:59;4.78;;;2.28;;
59974;SDS011;62136;-35.664;-63.766;2022-08-01T13:34:38;2.83;;;1.90;;
59974;SDS011;62136;-35.664;-63.766;2022-08-01T13:37:05;5.30;;;2.95;;
59974;SDS011;62136;-35.664;-63.766;2022-08-01T13:39:34;4.10;;;2.33;;
59974;SDS011;62136;-35.664;-63.766;2022-08-01T13:42:10;4.93;;;2.53;;
59974;SDS011;62136;-35.664;-63.766;2022-08-01T13:44:39;5.32;;;2.70;;
59974;SDS011;62136;-35.664;-63.766;2022-08-01T13:47:07;3.20;;;2.20;;
59974;SDS011;62136;-35.664;-63.766;2022-08-01T13:49:35;3.67;;;2.30;;
59974;SDS011;62136;-35.664;-63.766;2022-08-01T13:52:02;3.72;;;2.00;;
59974;SDS011;62136;-35.664;-63.766;2022-08-01T13:54:33;4.40;;;2.35;;
59974;SDS011;62136;-35.664;-63.766;2022-08-01T13:57:01;3.70;;;2.50;;
59974;SDS011;62136;-35.664;-63.766;2022-08-01T13:59:28;3.92;;;2.20;;
59974;SDS011;62136;-35.664;-63.766;2022-08-01T14:01:56;3.97;;;2.47;;
59974;SDS011;62136;-35.664;-63.766;2022-08-01T14:04:23;6.03;;;2.50;;
59974;SDS011;62136;-35.664;-63.766;2022-08-01T14:06:50;5.53;;;2.90;;
59974;SDS011;62136;-35.664;-63.766;2022-08-01T14:09:17;4.97;;;2.80;;
59974;SDS011;62136;-35.664;-63.766;2022-08-01T14:11:48;5.22;;;3.10;;
59974;SDS011;62136;-35.664;-63.766;2022-08-01T14:14:15;4.45;;;2.72;;
59974;SDS011;62136;-35.664;-63.766;2022-08-01T14:16:42;3.70;;;2.53;;
59974;SDS011;62136;-35.664;-63.766;2022-08-01T14:19:12;6.10;;;2.70;;
59974;SDS011;62136;-35.664;-63.766;2022-08-01T14:21:41;4.57;;;2.50;;
59974;SDS011;62136;-35.664;-63.766;2022-08-01T14:24:09;5.40;;;2.60;;
59974;SDS011;62136;-35.664;-63.766;2022-08-01T14:26:36;3.53;;;2.65;;
59974;SDS011;62136;-35.664;-63.766;2022-08-01T14:29:03;5.07;;;2.90;;
59974;SDS011;62136;-35.664;-63.766;2022-08-01T14:31:30;5.05;;;3.28;;
59974;SDS011;62136;-35.664;-63.766;2022-08-01T14:33:57;6.28;;;3.40;;
59974;SDS011;62136;-35.664;-63.766;2022-08-01T14:36:25;4.10;;;3.15;;
59974;SDS011;62136;-35.664;-63.766;2022-08-01T14:38:52;6.78;;;3.15;;
59974;SDS011;62136;-35.664;-63.766;2022-08-01T14:41:19;2.95;;;2.65;;
59974;SDS011;62136;-35.664;-63.766;2022-08-01T14:43:46;7.65;;;3.13;;
59974;SDS011;62136;-35.664;-63.766;2022-08-01T14:46:13;4.47;;;3.20;;
59974;SDS011;62136;-35.664;-63.766;2022-08-01T14:48:41;5.13;;;3.00;;
59974;SDS011;62136;-35.664;-63.766;2022-08-01T14:51:08;7.35;;;3.17;;
59974;SDS011;62136;-35.664;-63.766;2022-08-01T14:53:36;5.80;;;3.47;;
59974;SDS011;62136;-35.664;-63.766;2022-08-01T14:56:03;6.80;;;3.85;;
59974;SDS011;62136;-35.664;-63.766;2022-08-01T14:58:31;6.68;;;4.22;;
59974;SDS011;62136;-35.664;-63.766;2022-08-01T15:00:59;7.15;;;3.67;;
59974;SDS011;62136;-35.664;-63.766;2022-08-01T15:03:27;4.75;;;3.40;;
59974;SDS011;62136;-35.664;-63.766;2022-08-01T15:05:54;6.20;;;4.00;;
59974;SDS011;62136;-35.664;-63.766;2022-08-01T15:08:22;6.35;;;3.40;;
59974;SDS011;62136;-35.664;-63.766;2022-08-01T15:10:49;6.50;;;3.72;;
59974;SDS011;62136;-35.664;-63.766;2022-08-01T15:13:16;6.00;;;3.85;;
59974;SDS011;62136;-35.664;-63.766;2022-08-01T15:15:44;7.85;;;5.10;;
59974;SDS011;62136;-35.664;-63.766;2022-08-01T15:18:12;5.75;;;3.90;;
59974;SDS011;62136;-35.664;-63.766;2022-08-01T15:20:40;7.68;;;4.75;;